Date,TemperatureHighF,TemperatureAvgF,TemperatureLowF,DewpointHighF,DewpointAvgF,DewpointLowF,HumidityHigh,HumidityAvg,HumidityLow,PressureMaxIn,PressureMinIn,WindSpeedMaxMPH,WindSpeedAvgMPH,GustSpeedMaxMPH,PrecipitationSumIn
2013-3-1,66.0,62.6,58.7,58.8,52.8,47.8,90,70,60,30.02,29.92,14,4,14,0.01
2013-3-2,66.1,58.1,53.2,49.6,44.1,37.6,73,60,45,30.08,29.98,18,5,24,0.00
2013-3-3,61.9,55.3,50.5,47.7,44.4,41.3,86,68,49,30.18,30.00,17,5,18,0.00
2013-3-4,65.6,54.9,44.0,45.6,40.6,35.0,80,61,34,30.28,30.14,14,3,15,0.00
2013-3-5,75.0,63.3,48.9,57.8,53.1,44.0,95,71,52,30.23,30.09,13,2,15,0.00
2013-3-6,78.2,65.7,53.0,64.9,52.5,28.2,94,67,25,30.13,29.95,19,6,23,0.00
2013-3-7,70.1,59.3,48.4,56.1,45.7,38.0,87,63,39,30.23,30.11,13,3,13,0.00
2013-3-8,75.1,64.3,54.1,54.9,51.9,42.9,96,67,33,30.24,30.10,10,2,12,0.00
2013-3-9,74.6,62.3,55.3,57.7,53.4,49.9,91,74,51,30.22,30.13,14,2,17,0.00
2013-3-12,80.1,76.6,70.5,69.3,67.3,63.5,86,73,64,30.02,29.91,15,6,19,0.00
2013-3-13,76.8,67.5,58.0,66.4,57.6,39.9,94,73,30,30.13,30.00,13,4,16,0.00
2013-3-14,61.0,59.4,58.0,54.3,53.0,51.2,84,79,70,30.14,30.13,8,2,16,0.00
2013-3-15,72.1,67.8,60.3,54.1,51.3,46.7,76,56,42,30.29,30.15,13,4,14,0.00
2013-3-16,75.2,64.5,53.6,57.3,54.0,51.9,96,71,49,30.24,30.10,15,2,16,0.00
2013-3-17,76.9,67.4,57.6,62.0,57.6,54.4,92,72,53,30.18,30.04,13,2,16,0.00
2013-3-18,79.9,72.3,67.4,70.6,65.2,60.8,95,79,66,30.10,29.98,20,3,21,0.08
2013-3-19,79.3,72.6,68.9,70.7,68.1,63.6,96,87,60,30.04,29.85,14,2,21,0.06
2013-3-20,82.5,72.1,64.0,71.2,65.5,57.0,97,81,52,30.00,29.81,18,2,22,0.01
2013-3-21,75.0,66.4,63.1,63.0,58.6,45.7,96,79,38,29.96,29.86,12,4,22,0.14
2013-3-24,88.6,83.5,78.3,71.7,68.9,65.6,80,62,48,29.80,29.70,27,9,30,0.02
2013-3-25,78.3,75.4,71.6,73.2,70.6,63.0,92,85,73,29.89,29.76,13,4,15,0.00